Main page
METAR-TAF:

METAR-TAF

Airports :

Donaldson Center Airport

Greenville, South Carolina, United States

latitude: 34-45-30N, longitude: 082-22-35W, elevation: 954 ft

Current weather observation

The report was made 14 minutes ago, at 11:47 UTC
Wind 5 mph from the Southwest
Temperature 32°F
Humidity 86%
Pressure 30.27 in. Hg
Visibility: 10 miles
Clear sky

METAR: KGYH 231147Z 23004KT 10SM CLR 00/M02 A3027

Time: 07:01 (12:01 UTC)


TAF: missing

Weather observations and forecasts of more than 4000 airports (METAR and TAF reports).

The available stations are represented by yellow and red dots on the map.

Hover mouse over dot to see the name of the station.

Then click to see weather observations and forecasts.

To change the map : click on the green buttons with a black cross to zoom in, on the green button with a dash to zoom out, or on the green arrows for adjacent maps.


METAR-TAF: